Time;durP1;ratioP1;P1;durP2;ratioP2;P2;SDS_P1;SDS_P2;PMS_P1;PMS_P2;Temp;Humidity;BMP_temperature;BMP_pressure;BME280_temperature;BME280_humidity;BME280_pressure;Samples;Min_cycle;Max_cycle;Signal;HPM_P1;HPM_P2
2021/12/06 00:00:25;;;;;;;37.47;22.05;;;-1.10;96.10;;;;;;5035472;28;20041;-77
2021/12/06 00:02:53;;;;;;;45.63;22.63;;;-1.10;96.20;;;;;;5035797;28;20044;-76
2021/12/06 00:05:20;;;;;;;38.55;23.58;;;-1.10;96.30;;;;;;5043023;28;20017;-75
2021/12/06 00:07:46;;;;;;;43.38;20.95;;;-1.10;96.30;;;;;;5049686;28;20032;-76
2021/12/06 00:10:13;;;;;;;40.13;21.55;;;-1.10;96.40;;;;;;5037813;28;20049;-77
2021/12/06 00:12:39;;;;;;;38.75;19.55;;;-1.00;96.40;;;;;;5017859;28;20029;-77
2021/12/06 00:15:06;;;;;;;32.00;19.77;;;-1.00;96.40;;;;;;5035475;28;20128;-75
2021/12/06 00:17:32;;;;;;;37.20;20.77;;;-1.00;96.20;;;;;;5035444;28;20021;-76
2021/12/06 00:19:58;;;;;;;43.42;22.05;;;-0.90;96.20;;;;;;5035083;28;20411;-76
2021/12/06 00:22:24;;;;;;;40.33;19.73;;;-0.90;96.20;;;;;;5016890;28;20184;-75
2021/12/06 00:24:51;;;;;;;31.38;18.73;;;-0.90;96.20;;;;;;5033655;28;20490;-77
2021/12/06 00:27:17;;;;;;;;;;;-0.90;96.10;;;;;;5035427;28;20475;-76
2021/12/06 00:29:43;;;;;;;36.75;19.80;;;-0.90;96.10;;;;;;5035094;28;19912;-75
2021/12/06 00:32:09;;;;;;;38.63;21.35;;;-0.90;96.00;;;;;;5034721;28;20017;-75
2021/12/06 00:34:36;;;;;;;40.03;21.52;;;-1.00;95.80;;;;;;5034921;28;20438;-77
2021/12/06 00:37:23;;;;;;;42.40;20.98;;;-1.00;95.90;;;;;;5034741;28;20021;-76
2021/12/06 00:39:53;;;;;;;32.22;15.98;;;-1.10;96.00;;;;;;5034625;28;20029;-76
2021/12/06 00:42:21;;;;;;;39.33;23.30;;;-1.10;96.10;;;;;;5034658;28;20025;-77
2021/12/06 00:44:47;;;;;;;43.17;21.80;;;-1.10;96.10;;;;;;5034593;28;20037;-76
2021/12/06 00:47:13;;;;;;;41.90;21.58;;;-1.00;96.10;;;;;;5034751;28;20018;-77
2021/12/06 00:49:39;;;;;;;44.35;23.55;;;-1.10;96.10;;;;;;5034447;28;20025;-77
2021/12/06 00:52:06;;;;;;;47.13;21.25;;;-1.10;96.20;;;;;;5034360;28;20021;-77
2021/12/06 00:54:35;;;;;;;45.78;20.95;;;-1.20;96.20;;;;;;5034956;28;20025;-76
2021/12/06 00:57:06;;;;;;;47.03;23.67;;;-1.10;96.30;;;;;;5034370;28;20031;-77
2021/12/06 00:59:34;;;;;;;43.90;23.42;;;-1.10;96.50;;;;;;5034325;28;20021;-76
2021/12/06 01:02:00;;;;;;;42.92;21.90;;;-1.10;96.30;;;;;;5034756;28;20037;-76
2021/12/06 01:04:31;;;;;;;46.22;24.98;;;-1.10;96.30;;;;;;5034607;28;20068;-77
2021/12/06 01:06:57;;;;;;;49.45;27.65;;;-1.00;96.30;;;;;;5034208;28;20025;-77
2021/12/06 01:09:23;;;;;;;47.88;25.27;;;-1.10;96.20;;;;;;5034528;28;20383;-76
2021/12/06 01:11:50;;;;;;;50.15;29.92;;;-1.10;96.20;;;;;;5034140;28;20391;-75
2021/12/06 01:14:17;;;;;;;48.00;25.77;;;-1.20;96.30;;;;;;5033932;28;20044;-76
2021/12/06 01:16:43;;;;;;;46.33;23.48;;;-1.20;96.50;;;;;;5016294;28;20038;-76
2021/12/06 01:19:09;;;;;;;51.63;23.20;;;-1.30;96.50;;;;;;5033960;28;20026;-75
2021/12/06 01:22:22;;;;;;;43.30;23.10;;;-1.40;96.70;;;;;;5033917;28;20091;-77
2021/12/06 01:24:29;;;;;;;49.65;23.55;;;-1.40;96.70;;;;;;5025875;28;20033;-77
2021/12/06 01:32:21;;;;;;;39.95;22.67;;;-1.50;96.40;;;;;;5033882;28;20025;-76
2021/12/06 01:40:05;;;;;;;51.55;28.60;;;-1.60;96.60;;;;;;5034003;28;20033;-76
2021/12/06 01:42:31;;;;;;;55.33;25.90;;;-1.60;96.70;;;;;;5033747;28;20421;-76
2021/12/06 01:44:59;;;;;;;57.58;28.75;;;-1.60;96.90;;;;;;5015703;28;20029;-77
2021/12/06 01:47:32;;;;;;;;;;;-1.60;96.80;;;;;;5034122;28;20124;-76
2021/12/06 01:50:02;;;;;;;45.97;20.58;;;-1.70;96.70;;;;;;5033500;28;19912;-75
2021/12/06 01:52:31;;;;;;;47.50;27.13;;;-1.70;96.70;;;;;;4998355;28;20494;-76
2021/12/06 01:54:58;;;;;;;57.30;28.80;;;-1.80;97.00;;;;;;5033461;28;20067;-76
2021/12/06 01:57:26;;;;;;;48.88;24.13;;;-1.70;97.10;;;;;;5034605;28;20020;-77
2021/12/06 01:59:53;;;;;;;56.58;27.02;;;-1.70;97.10;;;;;;5047882;28;20033;-78
2021/12/06 02:02:21;;;;;;;50.95;24.05;;;-1.60;97.10;;;;;;5038937;28;20025;-78
2021/12/06 02:04:47;;;;;;;46.47;25.67;;;-1.60;97.10;;;;;;5033653;28;20469;-74
2021/12/06 02:07:16;;;;;;;55.80;25.40;;;-1.50;97.10;;;;;;5033402;28;20025;-76
2021/12/06 02:09:43;;;;;;;48.17;23.15;;;-1.40;97.00;;;;;;5033281;28;20024;-76
2021/12/06 02:12:11;;;;;;;54.70;25.48;;;-1.40;96.90;;;;;;5033059;28;20096;-77
2021/12/06 02:17:12;;;;;;;52.50;27.70;;;-1.40;96.60;;;;;;5032420;28;20025;-77
2021/12/06 02:19:43;;;;;;;57.58;28.10;;;-1.40;96.40;;;;;;5033106;28;20104;-75
2021/12/06 02:22:14;;;;;;;58.85;27.45;;;-1.50;96.30;;;;;;5033585;28;20040;-76
2021/12/06 02:24:40;;;;;;;53.97;26.55;;;-1.40;96.40;;;;;;5033247;28;20112;-76
2021/12/06 02:27:11;;;;;;;60.33;27.70;;;-1.60;96.30;;;;;;5032927;28;20143;-76
2021/12/06 02:29:38;;;;;;;46.85;25.60;;;-1.60;96.60;;;;;;5033304;28;20030;-76
2021/12/06 02:32:10;;;;;;;49.25;25.02;;;-1.70;96.70;;;;;;5014939;28;20025;-75
2021/12/06 02:34:40;;;;;;;51.97;26.50;;;-1.70;96.70;;;;;;5014979;28;20541;-76
2021/12/06 02:37:09;;;;;;;52.78;25.80;;;-1.70;96.70;;;;;;5033114;28;20490;-76
2021/12/06 02:39:37;;;;;;;50.40;27.40;;;-1.70;96.80;;;;;;5032956;28;20075;-76
2021/12/06 02:42:05;;;;;;;43.78;23.35;;;-1.70;96.80;;;;;;5032952;28;20044;-77
2021/12/06 02:44:31;;;;;;;55.58;26.77;;;-1.60;96.80;;;;;;5032619;28;20386;-75
2021/12/06 02:46:57;;;;;;;55.30;27.33;;;-1.60;96.80;;;;;;5035101;28;20029;-76
2021/12/06 02:49:23;;;;;;;55.47;24.67;;;-1.60;96.60;;;;;;5019136;28;20383;-77
2021/12/06 02:51:51;;;;;;;58.50;28.92;;;-1.60;96.50;;;;;;5019083;28;20179;-75
2021/12/06 02:54:20;;;;;;;52.75;26.08;;;-1.60;96.70;;;;;;5036815;28;20017;-77
2021/12/06 02:59:19;;;;;;;51.95;27.42;;;-1.60;96.70;;;;;;5037003;28;20033;-76
2021/12/06 03:01:49;;;;;;;70.30;32.42;;;-1.60;96.90;;;;;;5036423;28;20045;-76
2021/12/06 03:04:15;;;;;;;62.90;31.33;;;-1.50;96.90;;;;;;5036853;28;20104;-76
2021/12/06 03:06:41;;;;;;;68.47;32.00;;;-1.60;96.60;;;;;;5037283;28;20061;-77
2021/12/06 03:09:17;;;;;;;61.47;32.15;;;-1.70;96.80;;;;;;5036507;28;20026;-76
2021/12/06 03:11:51;;;;;;;63.08;31.85;;;-1.70;97.00;;;;;;5018535;28;20025;-76
2021/12/06 03:14:26;;;;;;;68.20;33.45;;;-1.70;97.10;;;;;;5036584;28;20077;-76
2021/12/06 03:16:56;;;;;;;54.88;27.73;;;-1.80;97.10;;;;;;5036428;28;20033;-76
2021/12/06 03:19:22;;;;;;;64.07;28.73;;;-1.80;97.20;;;;;;5036391;28;20100;-79
2021/12/06 03:21:49;;;;;;;59.77;30.40;;;-1.80;97.30;;;;;;5018374;28;20040;-76
2021/12/06 03:24:15;;;;;;;67.75;34.88;;;-1.80;97.40;;;;;;5036239;28;20025;-76
2021/12/06 03:26:41;;;;;;;70.10;34.15;;;-1.80;97.50;;;;;;5018673;28;20478;-75
2021/12/06 03:29:07;;;;;;;64.60;29.27;;;-1.80;97.60;;;;;;5036120;28;20013;-76
2021/12/06 03:31:40;;;;;;;58.25;27.48;;;-1.80;97.60;;;;;;5036048;28;20035;-77
2021/12/06 03:34:07;;;;;;;78.85;35.85;;;-1.80;97.70;;;;;;5035879;28;20028;-75
2021/12/06 03:36:35;;;;;;;73.68;32.08;;;-1.80;97.40;;;;;;5036335;28;20034;-76
2021/12/06 03:39:06;;;;;;;66.53;29.80;;;-1.90;97.60;;;;;;5035938;28;20133;-76
2021/12/06 03:41:32;;;;;;;60.70;29.83;;;-1.90;97.80;;;;;;5035975;28;20025;-77
2021/12/06 03:43:59;;;;;;;67.45;30.92;;;-1.90;97.90;;;;;;5036250;28;20033;-77
2021/12/06 03:46:28;;;;;;;42.90;23.20;;;-1.80;98.00;;;;;;5036097;28;20025;-77
2021/12/06 03:48:54;;;;;;;60.38;29.17;;;-1.80;98.00;;;;;;5036123;28;20055;-76
2021/12/06 03:51:20;;;;;;;61.88;28.02;;;-1.80;98.00;;;;;;5050833;28;20049;-76
2021/12/06 03:53:46;;;;;;;66.68;31.35;;;-1.80;97.80;;;;;;5046930;28;20025;-77
2021/12/06 03:56:13;;;;;;;63.97;27.42;;;-1.80;97.80;;;;;;5036487;28;20025;-76
2021/12/06 03:58:39;;;;;;;66.88;31.75;;;-1.80;97.80;;;;;;5034893;28;20032;-76
2021/12/06 04:01:05;;;;;;;55.08;29.15;;;-1.90;98.00;;;;;;5035641;28;20495;-76
2021/12/06 04:03:34;;;;;;;66.63;32.13;;;-1.90;98.10;;;;;;5035573;28;20037;-75
2021/12/06 04:06:01;;;;;;;57.38;26.48;;;-1.90;98.10;;;;;;5035430;28;20022;-75
2021/12/06 04:08:27;;;;;;;57.42;28.55;;;-1.90;97.90;;;;;;5035757;28;20536;-78
2021/12/06 04:10:55;;;;;;;51.20;26.45;;;-2.00;97.90;;;;;;5017811;28;20021;-77
2021/12/06 04:13:22;;;;;;;65.68;36.60;;;-2.00;97.90;;;;;;5035499;28;20029;-76
2021/12/06 04:15:48;;;;;;;54.15;23.20;;;-2.10;97.90;;;;;;5034279;28;20111;-75
2021/12/06 04:18:14;;;;;;;47.20;22.52;;;-2.20;97.80;;;;;;5035862;28;20585;-75
2021/12/06 04:20:40;;;;;;;60.80;27.90;;;-2.30;97.90;;;;;;5035385;28;20124;-76
2021/12/06 04:23:15;;;;;;;50.63;26.58;;;-2.40;98.00;;;;;;5035104;28;20029;-78
2021/12/06 04:25:42;;;;;;;57.88;28.20;;;-2.50;98.20;;;;;;5017146;28;20029;-77
2021/12/06 04:28:09;;;;;;;41.65;22.02;;;-2.50;98.40;;;;;;5035113;28;20032;-76
2021/12/06 04:30:38;;;;;;;59.17;28.40;;;-2.50;98.50;;;;;;5035540;28;20025;-76
2021/12/06 04:33:05;;;;;;;50.22;26.40;;;-2.50;98.70;;;;;;5034783;28;20028;-78
2021/12/06 04:35:31;;;;;;;42.47;22.88;;;-2.40;98.60;;;;;;5034981;28;20025;-76
2021/12/06 04:37:58;;;;;;;53.95;27.33;;;-2.40;98.50;;;;;;5035039;28;20103;-76
2021/12/06 04:40:24;;;;;;;57.67;30.75;;;-2.40;98.50;;;;;;5035003;28;20467;-77
2021/12/06 04:42:50;;;;;;;44.00;22.30;;;-2.40;98.50;;;;;;5036734;28;20038;-76
2021/12/06 04:45:16;;;;;;;43.65;22.85;;;-2.30;98.30;;;;;;5016828;28;20434;-75
2021/12/06 04:47:42;;;;;;;53.47;27.20;;;-2.30;98.20;;;;;;5035055;28;20017;-78
2021/12/06 04:50:10;;;;;;;53.05;27.95;;;-2.30;98.30;;;;;;5017182;28;20059;-78
2021/12/06 04:52:37;;;;;;;58.67;27.17;;;-2.30;98.20;;;;;;5034383;28;20033;-79
2021/12/06 04:55:09;;;;;;;38.90;18.33;;;-2.20;98.10;;;;;;5034718;28;20053;-78
2021/12/06 04:57:40;;;;;;;46.72;25.13;;;-2.30;97.70;;;;;;5034319;28;20033;-79
2021/12/06 05:00:10;;;;;;;38.95;20.63;;;-2.50;97.50;;;;;;5034427;28;20037;-79
2021/12/06 05:02:38;;;;;;;31.52;16.17;;;-2.50;97.80;;;;;;5034044;28;20025;-78
2021/12/06 05:05:18;;;;;;;36.33;20.63;;;-2.50;97.70;;;;;;5033814;28;20028;-78
2021/12/06 05:07:49;;;;;;;37.65;18.63;;;-2.50;97.80;;;;;;5034078;28;20104;-79
2021/12/06 05:10:16;;;;;;;36.80;20.02;;;-2.50;97.80;;;;;;5032975;28;20104;-77
2021/12/06 05:12:44;;;;;;;42.40;20.52;;;-2.50;97.80;;;;;;5016127;28;20363;-78
2021/12/06 05:15:10;;;;;;;;;;;-2.40;97.80;;;;;;5034174;28;20050;-77
2021/12/06 05:17:37;;;;;;;;;;;-2.40;97.40;;;;;;5034117;28;19928;-78
2021/12/06 05:20:04;;;;;;;39.55;21.70;;;-2.50;97.30;;;;;;5033877;28;19909;-78
2021/12/06 05:22:31;;;;;;;40.80;22.52;;;-2.50;97.30;;;;;;5016008;28;20037;-77
2021/12/06 05:24:58;;;;;;;37.70;20.05;;;-2.50;97.30;;;;;;5034151;28;20390;-78
2021/12/06 05:27:28;;;;;;;38.97;20.13;;;-2.50;97.30;;;;;;5033681;28;20029;-79
2021/12/06 05:29:59;;;;;;;36.17;19.35;;;-2.50;96.80;;;;;;5033636;28;20030;-78
2021/12/06 05:32:27;;;;;;;41.38;21.50;;;-2.60;97.00;;;;;;5033511;28;20021;-77
2021/12/06 05:35:01;;;;;;;39.65;18.35;;;-2.60;97.20;;;;;;5033820;28;20022;-78
2021/12/06 05:37:28;;;;;;;40.08;22.23;;;-2.60;97.20;;;;;;5033990;28;20025;-79
2021/12/06 05:39:54;;;;;;;40.20;22.48;;;-2.70;97.10;;;;;;5034308;28;20022;-78
2021/12/06 05:42:21;;;;;;;43.72;22.10;;;-2.70;97.20;;;;;;5039908;28;20509;-79
2021/12/06 05:44:46;;;;;;;38.80;21.23;;;-2.70;97.20;;;;;;5036322;28;20033;-78
2021/12/06 05:47:12;;;;;;;44.47;24.30;;;-2.60;97.30;;;;;;5016762;28;20025;-80
2021/12/06 05:49:39;;;;;;;41.63;20.65;;;-2.60;97.30;;;;;;5034144;28;20029;-79
2021/12/06 05:52:05;;;;;;;31.42;19.02;;;-2.50;97.30;;;;;;5033724;28;20017;-80
2021/12/06 05:54:32;;;;;;;35.03;17.37;;;-2.50;97.20;;;;;;5033202;28;20372;-77
2021/12/06 05:56:59;;;;;;;30.13;17.73;;;-2.50;97.20;;;;;;5033472;28;20382;-79
2021/12/06 05:59:25;;;;;;;37.20;22.00;;;-2.60;97.20;;;;;;5033414;28;20402;-78
2021/12/06 06:01:53;;;;;;;38.90;20.50;;;-2.60;97.30;;;;;;5033023;28;20037;-78
2021/12/06 06:04:19;;;;;;;39.05;22.30;;;-2.60;97.40;;;;;;5033161;28;20032;-76
2021/12/06 06:06:46;;;;;;;36.20;20.45;;;-2.60;97.60;;;;;;5033070;28;20519;-78
2021/12/06 06:09:11;;;;;;;46.08;22.40;;;-2.60;97.60;;;;;;5033233;28;20351;-79
2021/12/06 06:11:37;;;;;;;52.15;28.80;;;-2.60;97.50;;;;;;5032743;28;20056;-78
2021/12/06 06:14:05;;;;;;;44.38;22.08;;;-2.60;97.70;;;;;;5032785;28;20042;-78
2021/12/06 06:16:46;;;;;;;39.97;22.50;;;-2.70;97.80;;;;;;5033910;28;20029;-78
2021/12/06 06:19:12;;;;;;;44.00;22.35;;;-2.70;97.90;;;;;;5033031;28;20109;-79
2021/12/06 06:21:37;;;;;;;49.50;23.02;;;-2.60;97.90;;;;;;5032143;28;20121;-79
2021/12/06 06:24:03;;;;;;;52.25;28.02;;;-2.70;97.90;;;;;;5033102;28;20044;-80
2021/12/06 06:26:29;;;;;;;56.75;25.88;;;-2.70;97.90;;;;;;5033760;28;20083;-78
2021/12/06 06:28:55;;;;;;;48.42;25.80;;;-2.60;98.10;;;;;;5032837;28;20475;-77
2021/12/06 06:31:21;;;;;;;58.83;26.73;;;-2.60;98.20;;;;;;5032751;28;20025;-78
2021/12/06 06:33:47;;;;;;;51.03;24.65;;;-2.60;98.30;;;;;;5032450;28;20372;-76
2021/12/06 06:36:13;;;;;;;36.45;19.95;;;-2.50;98.50;;;;;;5032640;28;20031;-83
2021/12/06 06:38:39;;;;;;;47.92;26.27;;;-2.50;98.50;;;;;;5016696;28;20025;-77
2021/12/06 06:41:06;;;;;;;45.93;26.07;;;-2.40;98.90;;;;;;5032686;28;20398;-77
2021/12/06 06:43:32;;;;;;;44.25;23.63;;;-2.40;98.70;;;;;;5034249;28;20053;-76
2021/12/06 06:45:58;;;;;;;43.70;24.88;;;-2.30;98.70;;;;;;5032732;28;20113;-76
2021/12/06 06:48:24;;;;;;;48.03;23.38;;;-2.20;98.70;;;;;;5032602;28;20076;-78
2021/12/06 06:50:50;;;;;;;40.95;22.70;;;-2.20;98.60;;;;;;5032425;28;20025;-76
2021/12/06 06:53:15;;;;;;;41.10;20.55;;;-2.10;98.60;;;;;;5032297;28;20017;-76
2021/12/06 06:55:41;;;;;;;43.20;23.80;;;-2.00;98.60;;;;;;5032434;28;20073;-76
2021/12/06 06:58:07;;;;;;;36.70;22.50;;;-2.00;98.60;;;;;;5032410;28;20022;-77
2021/12/06 07:00:37;;;;;;;37.95;19.92;;;-1.90;98.60;;;;;;5032479;28;20390;-76
2021/12/06 07:03:05;;;;;;;42.83;22.63;;;-1.90;98.50;;;;;;5015403;28;20037;-77
2021/12/06 07:05:31;;;;;;;42.28;21.02;;;-1.80;98.30;;;;;;5032369;28;20036;-77
2021/12/06 07:07:57;;;;;;;39.00;23.67;;;-1.90;98.20;;;;;;5032780;28;20018;-78
2021/12/06 07:10:24;;;;;;;41.57;20.10;;;-1.80;98.20;;;;;;5014824;28;20127;-79
2021/12/06 07:12:52;;;;;;;35.20;20.80;;;-1.90;97.90;;;;;;5032315;28;20333;-76
2021/12/06 07:15:29;;;;;;;44.47;22.85;;;-1.90;98.10;;;;;;5032238;28;20127;-78
2021/12/06 07:17:55;;;;;;;;;;;-1.80;98.10;;;;;;5032634;28;20025;-77
2021/12/06 07:20:21;;;;;;;43.40;20.58;;;-1.90;97.90;;;;;;5014185;28;19963;-76
2021/12/06 07:22:51;;;;;;;37.83;22.45;;;-1.90;97.80;;;;;;5014442;28;20025;-76
2021/12/06 07:25:18;;;;;;;43.15;21.10;;;-1.90;97.80;;;;;;5032607;28;20459;-77
2021/12/06 07:27:44;;;;;;;45.40;21.58;;;-1.90;97.80;;;;;;5032019;28;20438;-75
2021/12/06 07:30:15;;;;;;;39.50;20.90;;;-1.80;98.00;;;;;;5032607;28;20386;-79
2021/12/06 07:32:42;;;;;;;37.28;19.30;;;-1.80;97.90;;;;;;5019705;28;20036;-76
2021/12/06 07:35:09;;;;;;;34.83;17.25;;;-1.90;97.80;;;;;;5056688;28;20073;-76
2021/12/06 07:37:35;;;;;;;37.60;17.17;;;-1.90;97.90;;;;;;5045904;28;20108;-77
2021/12/06 07:40:04;;;;;;;34.08;17.63;;;-1.90;98.20;;;;;;5035715;28;20013;-75
2021/12/06 07:42:29;;;;;;;32.70;17.65;;;-1.90;98.30;;;;;;5035596;28;20053;-77
2021/12/06 07:44:55;;;;;;;37.88;21.20;;;-1.80;98.50;;;;;;5035588;28;20459;-78
2021/12/06 07:47:22;;;;;;;37.85;20.15;;;-1.80;98.20;;;;;;5035490;28;20053;-77
2021/12/06 07:49:48;;;;;;;30.23;14.43;;;-1.70;98.40;;;;;;5035498;28;20025;-77
2021/12/06 07:52:13;;;;;;;18.90;10.07;;;-1.70;98.20;;;;;;5035756;28;20021;-76
2021/12/06 07:54:40;;;;;;;17.17;10.65;;;-1.70;98.10;;;;;;5035591;28;20018;-76
2021/12/06 07:57:07;;;;;;;18.77;10.52;;;-1.70;98.10;;;;;;5035508;28;20038;-76
2021/12/06 07:59:34;;;;;;;15.80;10.43;;;-1.70;98.20;;;;;;5035477;28;20049;-75
2021/12/06 08:02:00;;;;;;;19.00;8.88;;;-1.90;98.00;;;;;;5035172;28;20030;-77
2021/12/06 08:04:26;;;;;;;17.95;10.55;;;-2.00;97.80;;;;;;5035338;28;20467;-76
2021/12/06 08:06:52;;;;;;;23.40;9.98;;;-2.20;97.90;;;;;;5035387;28;20025;-77
2021/12/06 08:09:18;;;;;;;20.15;12.55;;;-2.30;98.00;;;;;;5035459;28;20021;-77
2021/12/06 08:11:44;;;;;;;26.13;12.95;;;-2.30;98.10;;;;;;5035456;28;20033;-78
2021/12/06 08:14:10;;;;;;;25.15;12.23;;;-2.50;98.00;;;;;;5035974;28;20119;-76
2021/12/06 08:16:40;;;;;;;17.00;9.65;;;-2.50;98.20;;;;;;5035336;28;20025;-76
2021/12/06 08:19:10;;;;;;;20.88;9.90;;;-2.50;98.20;;;;;;5034952;28;20021;-78
2021/12/06 08:21:36;;;;;;;24.13;12.77;;;-2.60;98.20;;;;;;5034647;28;20075;-78
2021/12/06 08:24:03;;;;;;;25.87;13.10;;;-2.70;98.40;;;;;;5034863;28;20028;-77
2021/12/06 08:26:33;;;;;;;26.55;12.65;;;-2.70;98.60;;;;;;5035029;28;20037;-77
2021/12/06 08:29:02;;;;;;;23.85;11.68;;;-2.70;98.80;;;;;;5034698;28;20028;-77
2021/12/06 08:31:29;;;;;;;26.55;14.98;;;-2.70;99.00;;;;;;5034883;28;20021;-78
2021/12/06 08:33:55;;;;;;;31.98;15.80;;;-2.70;99.00;;;;;;5034782;28;20018;-77
2021/12/06 08:36:22;;;;;;;29.98;16.08;;;-2.60;99.10;;;;;;5034954;28;20108;-78
2021/12/06 08:38:48;;;;;;;34.35;17.55;;;-2.60;99.10;;;;;;5034805;28;20411;-76
2021/12/06 08:41:18;;;;;;;22.23;10.83;;;-2.60;99.20;;;;;;5034326;28;20116;-77
2021/12/06 08:43:46;;;;;;;36.25;18.38;;;-2.60;98.80;;;;;;5034429;28;20441;-76
2021/12/06 08:46:17;;;;;;;39.35;19.83;;;-2.70;99.00;;;;;;5034498;28;20025;-77
2021/12/06 08:48:44;;;;;;;36.88;17.45;;;-2.70;99.30;;;;;;5035019;28;20049;-77
2021/12/06 08:51:19;;;;;;;31.17;18.38;;;-2.60;99.60;;;;;;5034751;28;20036;-76
2021/12/06 08:53:46;;;;;;;23.08;12.73;;;-2.50;99.40;;;;;;5034530;28;20164;-76
2021/12/06 08:56:13;;;;;;;28.20;12.23;;;-2.60;99.20;;;;;;5016698;28;20479;-77
2021/12/06 08:58:40;;;;;;;44.53;21.10;;;-2.70;99.00;;;;;;5034547;28;20356;-76
2021/12/06 09:01:07;;;;;;;33.28;17.45;;;-2.80;99.30;;;;;;5034238;28;20910;-78
2021/12/06 09:03:35;;;;;;;35.97;16.92;;;-2.70;99.70;;;;;;5034278;28;20144;-77
2021/12/06 09:06:03;;;;;;;37.60;19.35;;;-2.70;99.40;;;;;;5034473;28;20036;-77
2021/12/06 09:08:29;;;;;;;25.13;12.20;;;-2.70;99.40;;;;;;5034647;28;20026;-77
2021/12/06 09:10:55;;;;;;;22.90;13.52;;;-2.70;99.30;;;;;;5033908;28;20060;-78
2021/12/06 09:13:23;;;;;;;42.45;20.25;;;-2.80;99.20;;;;;;5034096;28;20061;-77
2021/12/06 09:15:51;;;;;;;38.70;21.00;;;-3.00;99.30;;;;;;5034305;28;20042;-76
2021/12/06 09:18:19;;;;;;;40.50;20.20;;;-2.90;99.60;;;;;;5034283;28;20113;-77
2021/12/06 09:20:47;;;;;;;29.20;16.02;;;-2.80;99.90;;;;;;5034166;28;20026;-74
2021/12/06 09:23:13;;;;;;;34.38;16.83;;;-2.70;99.90;;;;;;5035414;28;20080;-78
2021/12/06 09:25:40;;;;;;;35.45;18.77;;;-2.60;99.80;;;;;;5048653;28;20162;-78
2021/12/06 09:28:06;;;;;;;25.45;13.55;;;-2.60;99.50;;;;;;5042800;28;20481;-76
2021/12/06 09:30:33;;;;;;;33.28;17.50;;;-2.70;98.70;;;;;;5034496;28;20033;-77
2021/12/06 09:33:02;;;;;;;34.17;17.23;;;-2.80;98.70;;;;;;5033918;28;20022;-80
2021/12/06 09:35:30;;;;;;;39.25;16.88;;;-2.80;99.10;;;;;;5016336;28;20506;-78
2021/12/06 09:37:58;;;;;;;31.10;14.10;;;-2.80;98.70;;;;;;5033348;28;20565;-78
2021/12/06 09:40:26;;;;;;;29.23;15.38;;;-2.90;98.60;;;;;;5033431;28;20044;-77
2021/12/06 09:42:55;;;;;;;31.77;17.35;;;-2.90;98.80;;;;;;5033583;28;20021;-77
2021/12/06 09:45:27;;;;;;;36.08;17.83;;;-2.80;99.10;;;;;;5033664;28;20021;-77
2021/12/06 09:47:54;;;;;;;35.70;16.85;;;-2.70;98.90;;;;;;5033178;28;20014;-78
2021/12/06 09:50:27;;;;;;;36.83;16.75;;;-2.70;98.70;;;;;;5033357;28;20056;-77
2021/12/06 09:52:56;;;;;;;40.28;20.73;;;-2.70;98.70;;;;;;5033077;28;20029;-78
2021/12/06 09:55:22;;;;;;;34.08;17.17;;;-2.70;98.70;;;;;;5032626;28;20025;-77
2021/12/06 09:57:48;;;;;;;34.70;18.08;;;-2.60;98.70;;;;;;5032936;28;20022;-78
2021/12/06 10:00:19;;;;;;;33.60;18.27;;;-2.60;98.70;;;;;;5033168;28;20059;-77
2021/12/06 10:02:44;;;;;;;33.60;17.45;;;-2.60;98.60;;;;;;5033234;28;20059;-78
2021/12/06 10:05:26;;;;;;;27.60;15.63;;;-2.50;98.50;;;;;;5033219;28;20017;-80
2021/12/06 10:07:55;;;;;;;38.13;18.52;;;-2.60;98.30;;;;;;5033405;28;20029;-78
2021/12/06 10:10:22;;;;;;;35.90;17.38;;;-2.60;98.30;;;;;;5033934;28;20017;-77
2021/12/06 10:12:53;;;;;;;37.83;19.73;;;-2.50;98.30;;;;;;5033039;28;20024;-78
2021/12/06 10:15:27;;;;;;;57.13;27.92;;;-2.50;98.40;;;;;;5033278;28;20080;-76
2021/12/06 10:17:55;;;;;;;42.75;20.73;;;-2.50;98.20;;;;;;5032992;28;20108;-78
2021/12/06 10:20:21;;;;;;;;;;;-2.60;97.90;;;;;;5033624;28;20041;-76
2021/12/06 10:22:47;;;;;;;41.20;18.17;;;-2.70;97.70;;;;;;5032753;28;20251;-78
2021/12/06 10:25:13;;;;;;;35.13;16.15;;;-2.90;97.60;;;;;;5032622;28;20029;-76
2021/12/06 10:27:38;;;;;;;27.17;13.88;;;-3.00;97.90;;;;;;5032657;28;20017;-77
2021/12/06 10:30:10;;;;;;;31.80;16.33;;;-3.10;98.00;;;;;;5032691;28;20030;-77
2021/12/06 10:32:39;;;;;;;35.35;18.52;;;-3.10;98.30;;;;;;5033062;28;20514;-76
2021/12/06 10:35:09;;;;;;;36.22;15.45;;;-3.10;98.60;;;;;;5032895;28;20022;-76
2021/12/06 10:37:45;;;;;;;32.92;17.45;;;-3.10;98.70;;;;;;5032989;28;20097;-76
2021/12/06 10:40:33;;;;;;;45.50;22.67;;;-3.00;98.70;;;;;;5032781;28;20032;-76
2021/12/06 10:43:03;;;;;;;46.58;21.83;;;-2.90;98.80;;;;;;5014598;28;20364;-77
2021/12/06 10:45:49;;;;;;;43.45;22.15;;;-2.90;98.70;;;;;;5031973;28;20037;-76
2021/12/06 10:48:30;;;;;;;44.97;21.75;;;-2.80;98.80;;;;;;5032431;28;20292;-77
2021/12/06 10:51:10;;;;;;;47.28;19.70;;;-2.80;98.60;;;;;;5032488;28;20037;-76
2021/12/06 10:53:41;;;;;;;37.78;21.40;;;-2.80;98.50;;;;;;5014460;28;20029;-79
2021/12/06 10:56:17;;;;;;;47.97;20.35;;;-2.80;98.50;;;;;;5032342;28;20025;-77
2021/12/06 10:59:13;;;;;;;40.92;18.48;;;-2.80;98.70;;;;;;5033039;28;20028;-76
2021/12/06 11:01:40;;;;;;;;;;;-2.80;98.80;;;;;;4989003;28;20177;-77
2021/12/06 11:04:09;;;;;;;41.17;20.52;;;-2.70;98.80;;;;;;4958763;28;19957;-77
2021/12/06 11:07:01;;;;;;;42.42;20.33;;;-2.60;98.90;;;;;;5014488;28;20340;-79
2021/12/06 11:10:02;;;;;;;35.92;19.85;;;-2.60;98.80;;;;;;5011273;28;20339;-78
2021/12/06 11:13:44;;;;;;;34.88;15.88;;;-2.50;98.60;;;;;;5036467;28;20033;-78
2021/12/06 11:16:11;;;;;;;35.42;17.70;;;-2.50;98.50;;;;;;5044464;28;20080;-77
2021/12/06 11:19:01;;;;;;;31.48;15.90;;;-2.60;98.10;;;;;;5046368;28;20038;-77
2021/12/06 11:21:57;;;;;;;40.45;19.88;;;-2.70;98.30;;;;;;5035557;28;20044;-78
2021/12/06 11:24:46;;;;;;;;;;;-2.60;98.40;;;;;;5019269;28;20021;-76
2021/12/06 11:27:53;;;;;;;46.63;24.20;;;-2.60;98.40;;;;;;5034723;28;19948;-76
2021/12/06 11:30:20;;;;;;;40.47;20.10;;;-2.60;98.60;;;;;;5035318;28;20033;-77
2021/12/06 11:33:19;;;;;;;49.88;26.48;;;-2.50;98.60;;;;;;5036117;28;20163;-77
2021/12/06 11:35:45;;;;;;;46.47;20.92;;;-2.40;98.60;;;;;;5017454;28;20026;-76
2021/12/06 11:38:19;;;;;;;52.55;25.48;;;-2.40;98.30;;;;;;5035617;28;20032;-77
2021/12/06 11:40:46;;;;;;;47.10;23.10;;;-2.40;98.10;;;;;;5035593;28;20080;-77
2021/12/06 11:43:39;;;;;;;48.88;24.23;;;-2.40;98.40;;;;;;5017917;28;20108;-76
2021/12/06 11:46:08;;;;;;;51.10;24.23;;;-2.40;98.40;;;;;;5019218;28;20039;-75
2021/12/06 11:48:37;;;;;;;46.25;24.42;;;-2.30;98.50;;;;;;5018299;28;20426;-76
2021/12/06 11:51:16;;;;;;;48.47;25.70;;;-2.20;98.40;;;;;;5035545;28;20036;-78
2021/12/06 11:53:55;;;;;;;51.33;25.02;;;-2.20;98.30;;;;;;5035447;28;20025;-76
2021/12/06 11:56:32;;;;;;;55.08;26.23;;;-2.20;98.20;;;;;;5017533;28;20467;-77
2021/12/06 11:59:03;;;;;;;48.92;24.15;;;-2.20;98.10;;;;;;5035465;28;20483;-76
2021/12/06 12:01:53;;;;;;;48.85;23.45;;;-2.10;98.10;;;;;;5035400;28;20061;-75
2021/12/06 12:04:29;;;;;;;43.88;22.48;;;-2.10;98.00;;;;;;5035946;28;20017;-77
2021/12/06 12:07:00;;;;;;;55.08;23.65;;;-2.10;98.00;;;;;;5035637;28;20086;-78
2021/12/06 12:09:28;;;;;;;65.20;29.52;;;-2.10;98.00;;;;;;5035572;28;20024;-76
2021/12/06 12:11:57;;;;;;;61.50;29.23;;;-2.00;98.00;;;;;;5017314;28;20029;-75
2021/12/06 12:14:42;;;;;;;54.05;24.10;;;-2.00;97.90;;;;;;5035500;28;20187;-76
2021/12/06 12:17:15;;;;;;;50.85;24.45;;;-2.00;97.80;;;;;;5035016;28;20393;-78
2021/12/06 12:19:42;;;;;;;65.35;30.00;;;-2.20;97.20;;;;;;5034618;28;20079;-76
2021/12/06 12:22:09;;;;;;;55.80;26.63;;;-2.30;97.50;;;;;;5035502;28;20037;-76
2021/12/06 12:24:39;;;;;;;60.28;26.83;;;-2.30;97.80;;;;;;5034999;28;20659;-78
2021/12/06 12:27:31;;;;;;;57.00;24.70;;;-2.30;97.90;;;;;;5035440;28;20044;-76
2021/12/06 12:29:59;;;;;;;53.58;24.95;;;-2.30;98.10;;;;;;5034306;28;20052;-80
2021/12/06 12:32:26;;;;;;;56.72;28.52;;;-2.20;98.10;;;;;;5034863;28;20052;-78
2021/12/06 12:34:53;;;;;;;;;;;-2.20;97.90;;;;;;5035103;28;20033;-76
2021/12/06 12:37:20;;;;;;;47.55;24.27;;;-2.20;98.00;;;;;;5016618;28;20290;-77
2021/12/06 12:39:59;;;;;;;;;;;-2.10;98.10;;;;;;5035142;28;20026;-77
2021/12/06 12:42:26;;;;;;;47.75;22.98;;;-2.10;98.10;;;;;;5034560;28;19940;-77
2021/12/06 12:44:54;;;;;;;43.53;22.70;;;-2.10;98.10;;;;;;5034605;28;20104;-77
2021/12/06 12:47:25;;;;;;;49.75;23.88;;;-2.00;98.10;;;;;;5034677;28;20033;-77
2021/12/06 12:49:54;;;;;;;49.05;22.92;;;-2.00;98.10;;;;;;5034686;28;20509;-77
2021/12/06 12:52:40;;;;;;;43.83;21.33;;;-1.90;98.10;;;;;;5035733;28;20112;-76
2021/12/06 12:55:30;;;;;;;40.65;20.98;;;-1.90;97.90;;;;;;5034887;28;20026;-77
2021/12/06 12:58:22;;;;;;;47.35;23.75;;;-1.90;97.90;;;;;;5034533;28;20434;-76